Time;durP1;ratioP1;P1;durP2;ratioP2;P2;SDS_P1;SDS_P2;PMS_P1;PMS_P2;Temp;Humidity;BMP_temperature;BMP_pressure;BME280_temperature;BME280_humidity;BME280_pressure;Samples;Min_cycle;Max_cycle;Signal;HPM_P1;HPM_P2
2022/05/16 00:02:10;;;;;;;17.45;8.18;;;;;;;3.80;71.02;100123.29;1708440;81;28199;-60
2022/05/16 00:04:43;;;;;;;14.87;7.30;;;;;;;3.78;71.12;100121.19;1694176;82;21038;-60
2022/05/16 00:07:11;;;;;;;14.07;7.67;;;;;;;3.76;71.32;100122.08;1690644;82;21151;-59
2022/05/16 00:09:38;;;;;;;14.55;7.55;;;;;;;3.68;71.18;100115.70;1711202;81;21117;-59
2022/05/16 00:12:07;;;;;;;14.30;7.85;;;;;;;3.62;71.11;100121.41;1714320;81;21012;-59
2022/05/16 00:14:34;;;;;;;13.32;7.40;;;;;;;3.55;71.37;100121.89;1734794;81;21016;-60
2022/05/16 00:17:01;;;;;;;11.40;7.33;;;;;;;3.53;71.51;100118.50;1735029;81;21532;-59
2022/05/16 00:19:29;;;;;;;12.37;6.93;;;;;;;3.54;71.56;100117.62;1730871;81;21095;-59
2022/05/16 00:21:57;;;;;;;11.25;6.28;;;;;;;3.50;71.66;100115.92;1731549;81;21013;-59
2022/05/16 00:24:26;;;;;;;14.50;6.92;;;;;;;3.44;71.76;100119.44;1729923;82;21030;-59
2022/05/16 00:26:58;;;;;;;13.98;7.42;;;;;;;3.40;71.77;100124.67;1725676;82;20994;-60
2022/05/16 00:29:26;;;;;;;14.83;6.97;;;;;;;3.40;71.86;100122.09;1729806;82;21710;-59
2022/05/16 00:31:55;;;;;;;13.72;6.33;;;;;;;3.38;71.93;100122.53;1731983;81;21114;-60
2022/05/16 00:34:23;;;;;;;12.90;6.62;;;;;;;3.35;72.07;100129.44;1726728;82;20991;-59
2022/05/16 00:39:24;;;;;;;11.00;7.22;;;;;;;3.41;72.29;100123.79;1853556;75;22775;-60
2022/05/16 00:41:52;;;;;;;12.90;6.70;;;;;;;3.39;72.35;100128.11;1816612;78;20972;-60
2022/05/16 00:44:20;;;;;;;;;;;;;;;3.38;72.31;100127.70;1820483;77;22038;-59
2022/05/16 00:46:48;;;;;;;11.85;6.90;;;;;;;3.36;72.49;100124.71;1818829;77;21135;-61
2022/05/16 00:49:27;;;;;;;19.27;7.60;;;;;;;3.31;72.57;100126.48;1817946;78;20969;-60
2022/05/16 00:52:17;;;;;;;12.90;6.97;;;;;;;3.37;72.55;100133.30;1820042;77;21068;-61
2022/05/16 00:54:58;;;;;;;13.88;6.97;;;;;;;3.38;72.60;100121.24;1807610;78;21085;-60
2022/05/16 00:57:29;;;;;;;11.25;6.10;;;;;;;3.36;72.67;100135.03;1814907;77;22414;-61
2022/05/16 01:00:26;;;;;;;13.78;6.50;;;;;;;3.35;72.76;100128.14;1817818;77;20911;-61
2022/05/16 01:05:45;;;;;;;13.60;6.10;;;;;;;3.32;73.00;100123.02;1815514;78;21543;-61
2022/05/16 01:08:18;;;;;;;16.80;7.27;;;;;;;3.33;73.10;100124.75;1818445;77;21131;-61
2022/05/16 01:10:46;;;;;;;14.83;6.60;;;;;;;3.33;73.11;100122.17;1817161;77;21020;-61
2022/05/16 01:13:14;;;;;;;10.38;6.47;;;;;;;3.26;73.05;100120.52;1808671;78;20995;-60
2022/05/16 01:15:47;;;;;;;14.98;7.85;;;;;;;3.22;72.96;100118.85;1816597;77;21054;-60
2022/05/16 01:18:18;;;;;;;13.43;7.30;;;;;;;3.16;72.92;100124.49;1816317;77;20977;-61
2022/05/16 01:21:23;;;;;;;12.80;7.08;;;;;;;3.11;73.02;100124.56;1816443;77;22309;-61
2022/05/16 01:24:01;;;;;;;13.18;6.95;;;;;;;3.04;72.94;100125.05;1755965;80;21795;-59
2022/05/16 01:26:30;;;;;;;;;;;;;;;2.97;73.20;100127.69;1757722;80;20981;-60
2022/05/16 01:28:57;;;;;;;11.73;6.40;;;;;;;2.97;73.44;100130.27;1740498;80;20112;-60
2022/05/16 01:31:24;;;;;;;17.35;7.05;;;;;;;3.00;73.67;100132.84;1766276;79;21552;-60
2022/05/16 01:33:51;;;;;;;12.00;6.22;;;;;;;3.04;73.81;100125.48;1766885;79;20878;-60
2022/05/16 01:36:18;;;;;;;14.00;5.87;;;;;;;3.09;73.91;100124.56;1735080;80;21666;-59
2022/05/16 01:38:44;;;;;;;13.48;6.05;;;;;;;3.14;74.00;100123.23;1763139;79;21079;-59
2022/05/16 01:41:15;;;;;;;14.40;6.65;;;;;;;3.19;74.10;100116.72;1759918;79;21017;-61
2022/05/16 01:43:49;;;;;;;13.48;6.92;;;;;;;3.20;73.97;100112.84;1766421;79;21522;-60
2022/05/16 01:46:21;;;;;;;10.25;6.12;;;;;;;3.19;73.93;100113.69;1767129;80;21017;-62
2022/05/16 01:48:48;;;;;;;11.30;6.17;;;;;;;3.17;73.93;100111.59;1762802;80;21314;-61
2022/05/16 01:51:15;;;;;;;;;;;;;;;3.10;73.89;100113.36;1766712;79;21079;-60
2022/05/16 01:53:43;;;;;;;11.05;5.55;;;;;;;3.06;74.02;100110.85;1764575;79;20529;-60
2022/05/16 01:56:11;;;;;;;9.78;6.50;;;;;;;2.99;73.92;100115.64;1763005;79;21624;-60
2022/05/16 01:58:37;;;;;;;12.37;6.58;;;;;;;2.95;73.99;100117.41;1765154;79;20947;-60
2022/05/16 02:01:05;;;;;;;14.90;7.65;;;;;;;2.95;74.07;100121.27;1757152;80;22257;-61
2022/05/16 02:03:32;;;;;;;;;;;;;;;2.95;74.09;100121.71;1764464;80;21037;-60
2022/05/16 02:05:59;;;;;;;15.53;6.55;;;;;;;2.96;74.30;100113.09;1768445;80;20169;-60
2022/05/16 02:08:25;;;;;;;14.38;6.30;;;;;;;2.90;74.10;100117.44;1767102;79;21560;-61
2022/05/16 02:10:52;;;;;;;13.77;6.93;;;;;;;2.86;74.05;100122.66;1766763;79;21017;-60
2022/05/16 02:13:19;;;;;;;10.43;6.93;;;;;;;2.83;74.10;100124.83;1761603;80;21547;-60
2022/05/16 02:15:46;;;;;;;15.77;7.80;;;;;;;2.83;74.17;100115.80;1769633;80;20896;-61
2022/05/16 02:18:15;;;;;;;16.55;7.53;;;;;;;2.83;74.24;100117.50;1764408;80;21072;-61
2022/05/16 02:20:45;;;;;;;15.98;7.87;;;;;;;2.83;74.35;100126.12;1762764;80;21033;-61
2022/05/16 02:25:58;;;;;;;15.70;7.65;;;;;;;2.88;74.44;100124.33;1760067;79;21092;-61
2022/05/16 02:28:25;;;;;;;9.25;6.92;;;;;;;2.91;74.56;100126.91;1759353;80;21921;-60
2022/05/16 02:30:54;;;;;;;15.98;6.35;;;;;;;2.89;74.47;100129.92;1761167;80;21591;-60
2022/05/16 02:33:21;;;;;;;13.93;7.25;;;;;;;2.86;74.42;100126.09;1762641;79;21112;-60
2022/05/16 02:35:48;;;;;;;17.07;7.40;;;;;;;2.83;74.41;100130.39;1764561;79;20961;-61
2022/05/16 02:38:18;;;;;;;10.98;6.55;;;;;;;2.80;74.43;100128.73;1766722;79;22483;-60
2022/05/16 02:40:44;;;;;;;13.70;7.08;;;;;;;2.82;74.60;100129.55;1769370;80;21024;-60
2022/05/16 02:43:11;;;;;;;15.25;7.62;;;;;;;2.91;74.81;100131.19;1771556;79;21067;-61
2022/05/16 02:45:38;;;;;;;15.97;8.30;;;;;;;2.95;74.83;100129.45;1773698;79;21002;-60
2022/05/16 02:48:06;;;;;;;15.80;7.07;;;;;;;3.02;74.91;100125.48;1766572;80;21021;-60
2022/05/16 02:50:33;;;;;;;18.90;7.62;;;;;;;3.13;75.16;100121.51;1769867;79;21126;-60
2022/05/16 02:53:00;;;;;;;19.15;7.50;;;;;;;3.21;75.21;100124.86;1765985;79;21836;-60
2022/05/16 02:55:27;;;;;;;14.75;7.30;;;;;;;3.34;75.41;100131.61;1768136;79;20989;-60
2022/05/16 02:57:54;;;;;;;15.23;7.42;;;;;;;3.45;75.35;100125.48;1768493;79;21013;-60
2022/05/16 03:00:21;;;;;;;14.43;7.27;;;;;;;3.49;75.22;100125.84;1768754;79;21064;-61
2022/05/16 03:02:48;;;;;;;13.75;7.40;;;;;;;3.52;75.10;100121.94;1765640;80;22048;-60
2022/05/16 03:05:15;;;;;;;14.20;6.70;;;;;;;3.56;75.16;100128.78;1768217;80;21658;-60
2022/05/16 03:07:43;;;;;;;13.75;7.03;;;;;;;3.62;75.18;100130.00;1767322;79;20917;-61
2022/05/16 03:10:15;;;;;;;12.78;7.00;;;;;;;3.98;75.58;100131.69;1768170;79;21120;-61
2022/05/16 03:12:43;;;;;;;17.27;7.05;;;;;;;4.64;75.85;100128.09;1767148;79;21081;-60
2022/05/16 03:15:11;;;;;;;18.52;6.55;;;;;;;5.37;75.61;100130.64;1769395;80;21932;-59
2022/05/16 03:17:38;;;;;;;15.78;6.10;;;;;;;6.06;75.33;100125.81;1771984;79;21557;-59
2022/05/16 03:20:12;;;;;;;17.45;6.37;;;;;;;6.72;75.03;100129.42;1769410;79;22835;-60
2022/05/16 03:22:39;;;;;;;16.77;7.03;;;;;;;7.37;74.91;100124.26;1767365;79;21504;-61
2022/05/16 03:25:26;;;;;;;18.42;4.87;;;;;;;8.06;74.54;100120.09;1764628;79;20965;-59
2022/05/16 03:27:52;;;;;;;;;;;;;;;8.53;73.92;100117.78;1723864;82;21122;-60
2022/05/16 03:30:20;;;;;;;11.33;5.30;;;;;;;8.58;72.95;100120.23;1718979;82;20227;-60
2022/05/16 03:32:46;;;;;;;10.85;4.25;;;;;;;8.57;73.32;100124.60;1711603;82;21642;-59
2022/05/16 03:35:13;;;;;;;16.70;5.00;;;;;;;9.06;74.01;100112.52;1714225;82;20986;-60
2022/05/16 03:37:40;;;;;;;10.60;5.35;;;;;;;9.76;73.89;100122.61;1715086;82;21088;-60
2022/05/16 03:42:55;;;;;;;19.27;4.65;;;;;;;11.17;73.04;100113.01;1713356;82;21820;-60
2022/05/16 03:45:22;;;;;;;19.67;6.05;;;;;;;11.86;72.81;100105.56;1706955;82;20958;-60
2022/05/16 03:47:50;;;;;;;7.58;4.60;;;;;;;12.47;72.49;100111.44;1711060;82;21002;-60
2022/05/16 03:50:16;;;;;;;11.15;4.40;;;;;;;13.03;72.20;100109.05;1714498;82;21173;-60
2022/05/16 03:52:44;;;;;;;10.05;5.50;;;;;;;13.52;72.04;100103.89;1721057;82;26971;-60
2022/05/16 03:55:15;;;;;;;6.83;4.95;;;;;;;14.01;71.53;100105.64;1717104;82;21136;-60
2022/05/16 03:57:43;;;;;;;9.83;6.08;;;;;;;14.53;71.09;100099.61;1714291;82;21593;-60
2022/05/16 04:00:14;;;;;;;10.08;5.97;;;;;;;15.03;70.82;100097.59;1717869;81;21018;-60
2022/05/16 04:02:42;;;;;;;17.07;5.85;;;;;;;15.50;70.58;100095.66;1723960;82;21041;-61
2022/05/16 04:05:11;;;;;;;10.65;5.35;;;;;;;15.94;70.00;100099.49;1699371;82;21076;-61
2022/05/16 04:07:37;;;;;;;12.33;5.28;;;;;;;16.05;69.39;100096.18;1681660;84;21045;-61
2022/05/16 04:10:06;;;;;;;15.93;6.83;;;;;;;15.60;68.71;100096.76;1688023;83;21247;-60
2022/05/16 04:12:32;;;;;;;11.35;5.55;;;;;;;15.30;68.98;100100.35;1721834;82;21019;-61
2022/05/16 04:14:59;;;;;;;9.28;4.67;;;;;;;14.97;68.78;100102.75;1721639;82;20974;-60
2022/05/16 04:17:26;;;;;;;12.15;5.78;;;;;;;14.39;68.25;100107.41;1684367;83;22105;-60
2022/05/16 04:19:53;;;;;;;12.98;5.10;;;;;;;13.71;68.39;100089.79;1715648;82;21019;-60
2022/05/16 04:22:20;;;;;;;10.50;5.00;;;;;;;13.32;68.62;100113.28;1712273;82;21611;-60
2022/05/16 04:24:47;;;;;;;10.03;5.42;;;;;;;12.89;68.82;100110.23;1721659;82;21138;-60
2022/05/16 04:27:14;;;;;;;;;;;;;;;12.53;68.95;100111.13;1670088;84;20964;-60
2022/05/16 04:29:40;;;;;;;9.15;4.90;;;;;;;12.24;68.90;100110.78;1688627;83;21381;-59
2022/05/16 04:32:07;;;;;;;11.80;5.28;;;;;;;12.01;69.23;100108.38;1685851;83;21070;-60
2022/05/16 04:34:34;;;;;;;14.90;5.78;;;;;;;11.88;69.33;100117.75;1689614;83;22371;-60
2022/05/16 04:37:01;;;;;;;17.40;5.90;;;;;;;11.83;69.42;100112.22;1692318;83;20996;-61
2022/05/16 04:39:27;;;;;;;16.62;7.25;;;;;;;11.77;69.41;100108.59;1685220;84;21174;-60
2022/05/16 04:44:39;;;;;;;13.05;5.92;;;;;;;11.67;69.45;100115.14;1690720;83;21675;-61
2022/05/16 04:47:08;;;;;;;32.60;6.75;;;;;;;11.68;69.50;100114.25;1686747;83;20976;-60
2022/05/16 04:49:35;;;;;;;17.05;7.10;;;;;;;11.68;69.54;100119.48;1691839;83;21113;-61
2022/05/16 04:52:02;;;;;;;;;;;;;;;11.76;69.67;100117.36;1689965;84;21196;-60
2022/05/16 04:54:29;;;;;;;13.30;6.05;;;;;;;11.82;69.71;100113.16;1686261;84;21437;-60
2022/05/16 04:56:59;;;;;;;15.40;5.95;;;;;;;11.95;69.94;100121.77;1671955;84;21014;-61
2022/05/16 04:59:26;;;;;;;18.70;6.20;;;;;;;12.05;69.72;100116.50;1690505;82;21008;-63
2022/05/16 05:01:53;;;;;;;15.20;6.40;;;;;;;12.15;69.64;100119.05;1687069;83;21066;-61
2022/05/16 05:04:20;;;;;;;18.62;6.28;;;;;;;12.25;69.67;100124.24;1688730;84;21028;-62
2022/05/16 05:06:48;;;;;;;12.53;5.90;;;;;;;12.42;69.89;100118.66;1687790;84;21080;-62
2022/05/16 05:09:15;;;;;;;9.60;4.85;;;;;;;12.50;69.64;100113.91;1689329;82;21094;-62
2022/05/16 05:14:33;;;;;;;18.55;6.03;;;;;;;12.75;69.70;100117.00;1667054;84;21108;-62
2022/05/16 05:17:08;;;;;;;10.95;4.80;;;;;;;12.94;69.38;100119.55;1699385;83;21040;-62
2022/05/16 05:19:39;;;;;;;8.45;4.28;;;;;;;13.17;69.56;100115.75;1691455;83;21870;-62
2022/05/16 05:22:08;;;;;;;22.80;5.67;;;;;;;13.53;69.91;100117.41;1688508;82;21018;-62
2022/05/16 05:24:35;;;;;;;7.70;4.60;;;;;;;14.01;69.96;100120.92;1667502;84;21061;-63
2022/05/16 05:27:02;;;;;;;15.40;4.05;;;;;;;14.45;69.48;100119.34;1668685;84;21041;-62
2022/05/16 05:29:29;;;;;;;;;;;;;;;14.99;69.90;100115.34;1684769;83;21017;-63
2022/05/16 05:31:55;;;;;;;96.25;63.10;;;;;;;15.52;68.99;100120.10;1682548;83;22155;-63
2022/05/16 05:34:24;;;;;;;66.15;43.42;;;;;;;15.84;69.25;100122.91;1686044;84;21057;-63
2022/05/16 05:36:50;;;;;;;31.75;16.23;;;;;;;16.30;69.16;100124.43;1669860;84;20986;-63
2022/05/16 05:39:20;;;;;;;50.55;6.45;;;;;;;16.72;69.03;100116.81;1683428;84;21065;-62
2022/05/16 05:41:47;;;;;;;8.25;3.30;;;;;;;17.34;68.56;100117.96;1687939;83;22158;-63
2022/05/16 05:44:14;;;;;;;10.15;3.60;;;;;;;17.67;68.66;100117.38;1689862;82;21105;-63
2022/05/16 05:46:41;;;;;;;12.95;3.52;;;;;;;18.37;68.52;100112.81;1686290;82;21078;-64
2022/05/16 05:49:09;;;;;;;;;;;;;;;19.01;67.31;100103.21;1694445;82;21123;-62
2022/05/16 05:51:36;;;;;;;21.45;4.72;;;;;;;19.59;67.69;100100.50;1684101;82;20410;-62
2022/05/16 05:54:04;;;;;;;13.55;4.08;;;;;;;20.46;67.78;100106.73;1692866;82;21107;-63
2022/05/16 05:56:32;;;;;;;12.03;3.52;;;;;;;21.41;67.06;100103.23;1682376;83;21140;-63
2022/05/16 05:59:01;;;;;;;11.30;3.55;;;;;;;22.26;66.45;100103.30;1690977;82;20988;-62
2022/05/16 06:01:28;;;;;;;11.65;3.15;;;;;;;23.08;66.03;100089.56;1685885;83;21038;-63
2022/05/16 06:03:54;;;;;;;12.18;3.70;;;;;;;23.52;64.74;100100.97;1684119;83;21744;-61
2022/05/16 06:06:22;;;;;;;9.33;3.15;;;;;;;23.87;64.12;100093.12;1695199;83;21003;-62
2022/05/16 06:08:48;;;;;;;7.33;3.00;;;;;;;24.41;64.25;100091.00;1683724;83;21115;-62
2022/05/16 06:11:15;;;;;;;13.43;3.25;;;;;;;24.90;64.03;100090.95;1686876;83;21165;-63
2022/05/16 06:13:42;;;;;;;7.20;2.80;;;;;;;25.21;62.67;100091.34;1687503;83;21007;-64
2022/05/16 06:16:09;;;;;;;7.17;2.60;;;;;;;25.38;61.65;100080.75;1691239;83;21149;-63
2022/05/16 06:18:36;;;;;;;5.50;2.58;;;;;;;25.47;61.47;100079.78;1683468;82;21031;-62
2022/05/16 06:21:05;;;;;;;8.98;2.95;;;;;;;25.66;60.82;100071.52;1685396;84;22496;-62
2022/05/16 06:23:32;;;;;;;11.20;2.40;;;;;;;25.58;59.93;100076.83;1690243;83;20960;-63
2022/05/16 06:26:00;;;;;;;51.48;6.58;;;;;;;25.63;59.22;100079.03;1683690;83;21125;-63
2022/05/16 06:28:29;;;;;;;12.68;2.72;;;;;;;25.72;58.46;100081.23;1680514;83;21022;-63
2022/05/16 06:30:56;;;;;;;11.60;3.47;;;;;;;25.87;59.16;100080.96;1676471;84;21057;-63
2022/05/16 06:33:29;;;;;;;28.73;3.65;;;;;;;26.17;58.12;100082.72;1703433;82;21115;-63
2022/05/16 06:36:33;;;;;;;;;;;;;;;;;;;;;
2022/05/16 06:38:58;;;;;;;30.37;5.28;;;;;;;26.06;55.81;100083.36;1590819;87;21203;-64
2022/05/16 06:41:25;;;;;;;5.60;2.55;;;;;;;25.86;55.78;100087.33;1609557;87;21138;-63
2022/05/16 06:43:51;;;;;;;9.80;2.72;;;;;;;25.90;55.80;100085.98;1608772;87;21172;-63
2022/05/16 06:46:18;;;;;;;24.40;5.20;;;;;;;26.11;54.96;100090.39;1612049;87;21606;-63
2022/05/16 06:48:45;;;;;;;21.42;3.08;;;;;;;26.15;54.45;100080.70;1606348;87;21094;-63
2022/05/16 06:51:12;;;;;;;15.53;2.90;;;;;;;26.22;53.58;100083.06;1608598;87;21687;-63
2022/05/16 06:53:38;;;;;;;11.65;2.92;;;;;;;26.23;53.56;100083.39;1611026;87;21115;-64
2022/05/16 06:56:05;;;;;;;7.45;2.52;;;;;;;26.33;53.44;100086.77;1611000;87;21114;-64
2022/05/16 06:58:32;;;;;;;11.75;2.65;;;;;;;26.40;53.02;100087.75;1608304;87;21654;-64
2022/05/16 07:00:59;;;;;;;39.40;5.15;;;;;;;26.44;52.04;100083.76;1610915;87;21052;-63
2022/05/16 07:03:26;;;;;;;9.90;2.60;;;;;;;26.36;51.61;100083.75;1612808;87;21232;-63
2022/05/16 07:05:53;;;;;;;8.20;3.02;;;;;;;26.20;50.67;100087.73;1603759;87;21075;-63
2022/05/16 07:08:21;;;;;;;8.70;2.52;;;;;;;26.01;50.94;100084.84;1604132;87;21173;-63
2022/05/16 07:10:51;;;;;;;7.33;2.52;;;;;;;26.04;50.06;100084.52;1605709;87;22259;-63
2022/05/16 07:13:17;;;;;;;45.60;5.22;;;;;;;25.82;50.04;100080.58;1609657;87;21124;-63
2022/05/16 07:15:44;;;;;;;11.45;2.98;;;;;;;25.71;49.38;100088.89;1609764;87;21695;-63
2022/05/16 07:18:11;;;;;;;13.50;3.00;;;;;;;25.66;49.23;100090.23;1610800;87;21104;-63
2022/05/16 07:20:39;;;;;;;94.77;8.63;;;;;;;25.25;48.62;100093.70;1601859;87;21622;-65
2022/05/16 07:23:06;;;;;;;15.43;3.30;;;;;;;24.72;48.10;100093.63;1608045;87;21226;-65
2022/05/16 07:27:56;;;;;;;10.95;2.20;;;;;;;24.07;47.55;100103.67;1599974;87;21784;-64
2022/05/16 07:28:02;;;;;;;15.28;2.75;;;;;;;23.15;47.01;100104.47;1588622;87;21178;-63
2022/05/16 07:30:33;;;;;;;7.00;2.75;;;;;;;22.60;47.29;100101.56;1571416;88;21189;-64
2022/05/16 07:33:02;;;;;;;14.20;2.35;;;;;;;21.92;46.24;100104.95;1587846;87;21116;-63
2022/05/16 07:35:32;;;;;;;5.33;2.10;;;;;;;21.09;46.85;100108.15;1657510;82;21102;-62
2022/05/16 07:38:00;;;;;;;8.95;2.20;;;;;;;20.90;46.71;100109.35;1700266;82;21635;-62
2022/05/16 07:40:34;;;;;;;8.70;1.75;;;;;;;20.66;46.78;100113.07;1693147;82;21752;-62
2022/05/16 07:43:02;;;;;;;7.60;2.85;;;;;;;20.51;46.86;100113.00;1688495;82;21617;-63
2022/05/16 07:45:30;;;;;;;5.37;2.12;;;;;;;20.26;46.25;100115.00;1692834;82;21169;-62
2022/05/16 07:48:00;;;;;;;4.40;2.00;;;;;;;20.05;46.36;100112.75;1690071;82;21634;-62
2022/05/16 07:50:25;;;;;;;7.83;2.00;;;;;;;20.09;46.05;100116.86;1693446;82;20999;-63
2022/05/16 07:52:52;;;;;;;3.47;1.65;;;;;;;20.03;46.46;100113.39;1693010;82;20947;-63
2022/05/16 07:55:23;;;;;;;4.97;1.98;;;;;;;20.06;46.66;100114.45;1708334;82;21112;-64
2022/05/16 07:57:50;;;;;;;5.12;1.95;;;;;;;19.82;45.45;100118.09;1705248;82;21630;-61
2022/05/16 08:00:19;;;;;;;12.10;2.05;;;;;;;19.74;46.50;100111.23;1679065;84;25124;-63
2022/05/16 08:02:46;;;;;;;10.10;2.42;;;;;;;19.86;46.71;100112.92;1670025;82;22124;-63
2022/05/16 08:05:15;;;;;;;4.22;1.70;;;;;;;20.04;46.61;100115.06;1664567;84;23752;-62
2022/05/16 08:10:29;;;;;;;8.65;2.10;;;;;;;19.44;45.35;100117.96;1671543;84;21184;-61
2022/05/16 08:13:00;;;;;;;4.55;1.80;;;;;;;19.51;46.35;100121.45;1672023;84;21446;-61
2022/05/16 08:15:28;;;;;;;6.55;2.10;;;;;;;19.65;46.31;100121.20;1696254;82;21016;-62
2022/05/16 08:17:55;;;;;;;4.62;1.62;;;;;;;19.90;46.64;100120.97;1665019;84;21610;-61
2022/05/16 08:20:22;;;;;;;;;;;;;;;20.22;46.56;100117.56;1705319;82;20977;-61
2022/05/16 08:22:48;;;;;;;;;;;;;;;20.37;46.30;100114.63;1704661;82;20151;-61
2022/05/16 08:25:15;;;;;;;10.18;1.85;;;;;;;20.50;46.29;100120.58;1705699;82;21572;-61
2022/05/16 08:27:42;;;;;;;10.03;2.30;;;;;;;20.60;46.22;100114.08;1674536;84;21030;-64
2022/05/16 08:30:11;;;;;;;6.10;1.55;;;;;;;20.68;46.07;100121.75;1692683;82;20995;-62
2022/05/16 08:32:38;;;;;;;4.87;1.62;;;;;;;20.44;45.52;100126.39;1700276;82;20947;-62
2022/05/16 08:35:08;;;;;;;4.53;1.67;;;;;;;19.98;45.53;100127.48;1696421;82;21151;-61
2022/05/16 08:42:02;;;;;;;8.55;1.70;;;;;;;20.06;44.93;100120.59;1856323;76;22724;-61
2022/05/16 08:45:01;;;;;;;26.57;2.83;;;;;;;19.95;45.46;100122.44;1816472;76;21053;-62
2022/05/16 08:47:49;;;;;;;7.58;1.62;;;;;;;19.91;45.03;100117.84;1819219;77;21167;-63
2022/05/16 08:50:25;;;;;;;4.70;1.35;;;;;;;20.06;45.39;100119.77;1813994;77;20952;-63
2022/05/16 08:53:02;;;;;;;5.15;1.40;;;;;;;19.59;43.67;100130.97;1803032;78;20995;-63
2022/05/16 08:55:51;;;;;;;3.92;1.40;;;;;;;19.70;44.81;100118.23;1817490;77;21071;-64
2022/05/16 08:58:41;;;;;;;6.03;1.32;;;;;;;19.53;43.60;100118.20;1730333;80;21179;-63
2022/05/16 09:01:13;;;;;;;5.65;1.50;;;;;;;19.50;42.55;100121.10;1723351;81;21097;-61
2022/05/16 09:03:47;;;;;;;2.83;0.98;;;;;;;18.58;41.82;100128.07;1780936;79;21022;-61
2022/05/16 09:06:33;;;;;;;3.35;1.07;;;;;;;18.15;42.59;100135.16;1775259;79;21052;-62
2022/05/16 09:09:16;;;;;;;4.65;1.95;;;;;;;18.11;42.37;100140.66;1744461;80;21069;-63
2022/05/16 09:12:01;;;;;;;3.27;1.10;;;;;;;18.21;42.83;100138.70;1767858;80;21048;-62
2022/05/16 09:14:42;;;;;;;4.72;1.77;;;;;;;18.47;43.03;100139.43;1764988;79;21098;-62
2022/05/16 09:17:30;;;;;;;4.92;1.72;;;;;;;18.71;43.25;100136.78;1765645;79;20997;-62
2022/05/16 09:20:19;;;;;;;3.60;1.25;;;;;;;19.05;43.96;100135.60;1764598;79;21022;-62
2022/05/16 09:23:08;;;;;;;6.17;1.57;;;;;;;19.71;44.18;100131.34;1769582;79;21530;-62
2022/05/16 09:26:14;;;;;;;4.22;1.70;;;;;;;19.94;43.25;100136.63;1770143;80;21232;-63
2022/05/16 09:28:46;;;;;;;4.67;1.37;;;;;;;19.59;42.12;100140.23;1762810;79;21107;-62
2022/05/16 09:31:27;;;;;;;8.48;1.35;;;;;;;19.80;43.30;100142.56;1773947;79;21319;-63
2022/05/16 09:33:58;;;;;;;2.05;1.05;;;;;;;20.00;43.00;100141.46;1769945;79;21452;-65
2022/05/16 09:36:39;;;;;;;3.77;1.30;;;;;;;20.02;42.04;100142.16;1768021;79;21657;-65
2022/05/16 09:39:11;;;;;;;4.95;1.20;;;;;;;19.80;41.96;100130.64;1770562;79;21700;-65
2022/05/16 09:42:19;;;;;;;2.62;1.30;;;;;;;19.24;40.42;100143.83;1715997;79;80864;-62
2022/05/16 09:45:02;;;;;;;2.77;1.20;;;;;;;19.05;41.46;100146.19;1600367;87;20989;-63
2022/05/16 09:47:36;;;;;;;3.50;1.20;;;;;;;19.34;42.11;100135.52;1601703;87;21246;-64
2022/05/16 09:50:14;;;;;;;4.75;0.85;;;;;;;19.54;41.96;100134.45;1600610;87;21096;-64
2022/05/16 09:52:50;;;;;;;6.03;1.90;;;;;;;19.75;41.81;100139.43;1602343;87;21305;-63
2022/05/16 09:55:29;;;;;;;3.50;1.12;;;;;;;19.98;42.29;100124.83;1599565;87;21112;-63
2022/05/16 10:00:59;;;;;;;4.83;0.95;;;;;;;20.57;38.96;100116.50;1838021;76;23340;-61
2022/05/16 10:03:37;;;;;;;4.10;1.17;;;;;;;19.19;39.07;100136.23;1794918;78;21003;-62
2022/05/16 10:06:09;;;;;;;3.95;1.00;;;;;;;18.31;39.75;100143.66;1773619;77;21062;-62
2022/05/16 10:08:44;;;;;;;4.30;1.12;;;;;;;18.10;40.88;100136.34;1798955;77;20888;-64
2022/05/16 10:11:22;;;;;;;2.80;0.93;;;;;;;18.45;41.38;100135.56;1801173;78;20916;-62
2022/05/16 10:13:49;;;;;;;2.62;0.95;;;;;;;19.00;41.56;100126.19;1797368;78;20931;-62
2022/05/16 10:16:19;;;;;;;3.87;1.10;;;;;;;19.01;38.88;100125.22;1803470;77;21108;-63
2022/05/16 10:18:53;;;;;;;2.77;0.82;;;;;;;18.61;39.05;100130.48;1800623;79;21078;-62
2022/05/16 10:21:32;;;;;;;3.08;0.88;;;;;;;18.29;39.60;100132.38;1768358;79;21300;-62
2022/05/16 10:24:00;;;;;;;4.45;0.80;;;;;;;18.30;39.55;100145.95;1803206;78;21023;-62
2022/05/16 10:26:33;;;;;;;1.85;1.12;;;;;;;18.47;39.79;100138.95;1800320;78;21485;-62
2022/05/16 10:29:08;;;;;;;3.42;0.80;;;;;;;18.78;40.36;100134.90;1798926;79;21007;-63
2022/05/16 10:35:49;;;;;;;1.42;0.80;;;;;;;18.88;37.39;100127.12;1845030;75;23872;-62
2022/05/16 10:38:43;;;;;;;6.55;1.37;;;;;;;18.82;38.64;100122.31;1825827;76;21003;-62
2022/05/16 10:41:14;;;;;;;1.75;0.60;;;;;;;18.94;38.80;100117.41;1829705;76;21069;-61
2022/05/16 10:43:58;;;;;;;2.52;0.95;;;;;;;18.96;38.76;100111.52;1822156;76;48919;-65
2022/05/16 10:46:33;;;;;;;3.47;0.90;;;;;;;19.22;38.54;100116.62;1783552;79;20977;-63
2022/05/16 10:49:08;;;;;;;2.00;0.78;;;;;;;19.51;39.28;100105.56;1780329;79;21622;-63
2022/05/16 10:52:13;;;;;;;6.30;0.80;;;;;;;19.52;37.10;100104.59;1775059;79;20996;-63
2022/05/16 10:54:42;;;;;;;1.02;0.40;;;;;;;19.27;37.03;100106.52;1744037;81;21774;-62
2022/05/16 10:57:14;;;;;;;2.30;0.65;;;;;;;19.07;34.52;100120.42;1751340;81;21520;-63
2022/05/16 10:59:59;;;;;;;0.55;0.40;;;;;;;18.95;35.71;100120.40;1747795;80;21081;-62
2022/05/16 11:03:11;;;;;;;6.05;0.68;;;;;;;18.97;36.02;100107.91;1737550;81;21013;-63
2022/05/16 11:05:52;;;;;;;1.00;0.35;;;;;;;18.87;34.84;100102.94;1737275;81;20982;-63
2022/05/16 11:08:36;;;;;;;2.00;0.62;;;;;;;18.88;34.08;100096.70;1718909;81;21291;-62
2022/05/16 11:11:29;;;;;;;0.98;0.47;;;;;;;18.87;34.41;100104.26;1750652;80;20937;-62
2022/05/16 11:14:16;;;;;;;1.98;0.60;;;;;;;18.93;34.30;100114.41;1727223;81;21256;-62
2022/05/16 11:16:44;;;;;;;2.30;0.53;;;;;;;18.87;32.83;100114.84;1730517;82;21116;-62
2022/05/16 11:19:25;;;;;;;1.17;0.40;;;;;;;18.91;34.33;100108.37;1738880;81;21071;-63
2022/05/16 11:22:28;;;;;;;1.60;0.50;;;;;;;18.95;34.10;100101.87;1723544;82;21097;-63
2022/05/16 11:25:10;;;;;;;0.60;0.30;;;;;;;19.08;34.51;100096.98;1725404;82;21026;-62
2022/05/16 11:28:19;;;;;;;1.15;0.40;;;;;;;19.12;30.85;100089.16;1754708;80;20982;-64
2022/05/16 11:30:57;;;;;;;0.62;0.50;;;;;;;19.35;34.72;100082.95;1753697;80;21044;-65
2022/05/16 11:33:47;;;;;;;2.92;0.50;;;;;;;19.67;34.65;100098.13;1746173;80;21148;-62
2022/05/16 11:37:00;;;;;;;3.47;0.60;;;;;;;19.82;34.79;100098.70;1716197;82;21906;-62
2022/05/16 11:39:46;;;;;;;1.27;0.65;;;;;;;20.14;35.12;100093.48;1750097;80;21321;-63
2022/05/16 11:42:21;;;;;;;4.25;0.55;;;;;;;20.16;34.04;100095.98;1720744;81;21055;-62
2022/05/16 11:45:30;;;;;;;1.52;0.50;;;;;;;19.61;33.15;100098.59;1728549;80;125801;-62
2022/05/16 11:48:11;;;;;;;2.00;0.80;;;;;;;19.63;33.65;100097.51;1743294;81;20927;-62
2022/05/16 11:51:08;;;;;;;0.53;0.42;;;;;;;19.73;33.79;100097.64;1697610;84;21678;-62
2022/05/16 11:53:57;;;;;;;0.70;0.45;;;;;;;19.81;33.02;100100.52;1657856;85;21253;-62
2022/05/16 12:02:33;;;;;;;2.55;0.53;;;;;;;20.27;33.48;100092.81;1655775;85;21202;-62
2022/05/16 12:05:24;;;;;;;2.97;0.63;;;;;;;20.26;33.35;100086.33;1654145;85;21889;-62
2022/05/16 12:08:05;;;;;;;1.87;0.80;;;;;;;20.32;33.52;100089.30;1650570;85;20983;-62
2022/05/16 12:10:33;;;;;;;1.87;0.60;;;;;;;20.39;33.45;100088.80;1644116;85;21123;-62
2022/05/16 12:13:27;;;;;;;2.80;0.50;;;;;;;20.42;33.24;100080.61;1646955;85;21184;-63
2022/05/16 12:16:18;;;;;;;0.80;0.40;;;;;;;20.06;32.20;100085.30;1663766;84;21040;-62
2022/05/16 12:19:10;;;;;;;4.70;0.68;;;;;;;19.84;30.48;100083.05;1638736;85;21255;-62
2022/05/16 12:21:37;;;;;;;3.83;0.50;;;;;;;19.37;30.03;100075.70;1666661;84;21191;-62
2022/05/16 12:24:27;;;;;;;1.47;0.45;;;;;;;19.33;31.78;100086.19;1619170;87;21053;-62
2022/05/16 12:27:05;;;;;;;2.58;0.40;;;;;;;19.63;32.45;100075.45;1670122;84;21081;-62
2022/05/16 12:29:50;;;;;;;2.30;0.40;;;;;;;19.98;32.38;100074.48;1645772;87;21231;-61